createdAt,value
2018-02-14T00:00:49.461Z,14.20
2018-02-14T00:03:16.925Z,17.90
2018-02-14T00:05:44.370Z,17.50
2018-02-14T00:08:11.832Z,14.33
2018-02-14T00:10:39.289Z,15.90
2018-02-14T00:13:06.757Z,15.90
2018-02-14T00:15:34.958Z,15.57
2018-02-14T00:18:02.441Z,13.53
2018-02-14T00:20:29.896Z,15.87
2018-02-14T00:22:57.392Z,13.60
2018-02-14T00:25:24.832Z,24.47
2018-02-14T00:27:52.289Z,15.17
2018-02-14T00:30:19.728Z,17.20
2018-02-14T00:32:47.181Z,20.83
2018-02-14T00:35:14.641Z,16.87
2018-02-14T00:37:42.094Z,14.20
2018-02-14T00:40:09.561Z,19.70
2018-02-14T00:42:37.011Z,13.43
2018-02-14T00:45:05.231Z,13.20
2018-02-14T00:47:32.688Z,16.80
2018-02-14T00:50:00.152Z,20.00
2018-02-14T00:52:27.616Z,18.90
2018-02-14T00:54:55.064Z,13.60
2018-02-14T00:57:22.520Z,15.53
2018-02-14T00:59:49.970Z,13.50
2018-02-14T01:02:17.408Z,17.30
2018-02-14T01:04:44.875Z,16.47
2018-02-14T01:07:12.329Z,14.03
2018-02-14T01:09:39.799Z,17.00
2018-02-14T01:12:07.263Z,16.03
2018-02-14T01:14:35.492Z,15.97
2018-02-14T01:17:03.176Z,14.30
2018-02-14T01:19:36.061Z,14.73
2018-02-14T01:22:03.520Z,16.53
2018-02-14T01:24:30.979Z,12.47
2018-02-14T01:26:58.436Z,17.73
2018-02-14T01:29:25.899Z,14.30
2018-02-14T01:31:53.365Z,15.60
2018-02-14T01:34:20.825Z,12.80
2018-02-14T01:36:48.281Z,16.07
2018-02-14T01:39:15.732Z,13.90
2018-02-14T01:41:43.179Z,11.90
2018-02-14T01:44:10.644Z,14.03
2018-02-14T01:46:38.088Z,15.60
2018-02-14T01:49:05.545Z,18.80
2018-02-14T01:51:32.997Z,13.10
2018-02-14T01:54:01.221Z,13.70
2018-02-14T01:56:28.660Z,29.03
2018-02-14T01:58:56.129Z,17.70
2018-02-14T02:01:23.577Z,19.37
2018-02-14T02:03:51.036Z,16.97
2018-02-14T02:06:18.477Z,13.77
2018-02-14T02:08:46.721Z,13.50
2018-02-14T02:11:14.157Z,13.87
2018-02-14T02:13:42.384Z,13.30
2018-02-14T02:16:09.833Z,15.73
2018-02-14T02:18:37.437Z,15.70
2018-02-14T02:21:04.884Z,16.13
2018-02-14T02:23:32.329Z,15.17
2018-02-14T02:25:59.786Z,15.50
2018-02-14T02:28:27.232Z,17.10
2018-02-14T02:30:54.690Z,15.83
2018-02-14T02:33:22.152Z,14.17
2018-02-14T02:35:49.609Z,15.17
2018-02-14T02:38:17.073Z,13.80
2018-02-14T02:40:44.529Z,12.13
2018-02-14T02:43:11.973Z,18.13
2018-02-14T02:45:39.437Z,18.03
2018-02-14T02:48:06.907Z,14.50
2018-02-14T02:50:34.370Z,17.87
2018-02-14T02:53:01.810Z,21.27
2018-02-14T02:55:29.273Z,14.40
2018-02-14T02:57:56.721Z,16.67
2018-02-14T03:00:24.184Z,14.10
2018-02-14T03:02:52.396Z,16.57
2018-02-14T03:05:19.857Z,17.23
2018-02-14T03:07:48.094Z,15.83
2018-02-14T03:10:15.544Z,16.13
2018-02-14T03:12:43.000Z,16.60
2018-02-14T03:15:10.485Z,18.37
2018-02-14T03:17:37.954Z,17.10
2018-02-14T03:20:05.407Z,13.70
2018-02-14T03:22:32.865Z,19.03
2018-02-14T03:25:00.315Z,14.50
2018-02-14T03:27:27.874Z,15.33
2018-02-14T03:29:55.314Z,15.03
2018-02-14T03:32:22.776Z,18.23
2018-02-14T03:34:50.211Z,15.40
2018-02-14T03:37:17.676Z,15.37
2018-02-14T03:39:45.133Z,16.30
2018-02-14T03:42:12.601Z,19.97
2018-02-14T03:44:40.803Z,17.87
2018-02-14T03:47:08.258Z,15.47
2018-02-14T03:49:35.734Z,20.00
2018-02-14T03:52:03.961Z,13.80
2018-02-14T03:54:31.412Z,14.93
2018-02-14T03:56:58.874Z,20.10
2018-02-14T03:59:26.320Z,18.43
2018-02-14T04:01:53.790Z,15.07
2018-02-14T04:04:21.238Z,54.77
2018-02-14T04:06:48.697Z,23.90
2018-02-14T04:09:16.161Z,22.67
2018-02-14T04:11:44.390Z,22.03
2018-02-14T04:14:12.603Z,17.40
2018-02-14T04:16:40.057Z,18.80
2018-02-14T04:19:07.526Z,19.80
2018-02-14T04:21:35.005Z,17.90
2018-02-14T04:24:02.456Z,19.20
2018-02-14T04:26:29.909Z,15.87
2018-02-14T04:28:57.381Z,17.10
2018-02-14T04:31:24.826Z,19.37
2018-02-14T04:33:52.277Z,20.13
2018-02-14T04:36:19.724Z,20.33
2018-02-14T04:38:47.180Z,17.20
2018-02-14T04:41:14.645Z,23.33
2018-02-14T04:43:42.093Z,20.53
2018-02-14T04:46:09.540Z,20.40
2018-02-14T04:48:37.012Z,16.97
2018-02-14T04:51:04.456Z,18.57
2018-02-14T04:53:31.917Z,17.30
2018-02-14T04:55:59.367Z,17.73
2018-02-14T04:58:26.841Z,20.80
2018-02-14T05:00:54.299Z,23.50
2018-02-14T05:03:21.751Z,22.33
2018-02-14T05:05:49.200Z,27.27
2018-02-14T05:08:16.670Z,24.03
2018-02-14T05:10:44.119Z,17.80
2018-02-14T05:13:11.574Z,18.57
2018-02-14T05:15:39.025Z,24.30
2018-02-14T05:18:06.489Z,19.33
2018-02-14T05:20:33.953Z,19.50
2018-02-14T05:23:01.418Z,19.20
2018-02-14T05:25:28.869Z,16.27
2018-02-14T05:27:56.333Z,19.57
2018-02-14T05:30:23.787Z,15.67
2018-02-14T05:32:51.237Z,24.40
2018-02-14T05:35:18.700Z,17.37
2018-02-14T05:37:46.161Z,20.10
2018-02-14T05:40:13.617Z,17.23
2018-02-14T05:42:41.076Z,18.60
2018-02-14T05:45:08.540Z,15.90
2018-02-14T05:47:36.001Z,18.30
2018-02-14T05:50:03.456Z,26.33
2018-02-14T05:52:30.904Z,27.03
2018-02-14T05:54:58.369Z,18.80
2018-02-14T05:57:25.821Z,21.73
2018-02-14T05:59:53.276Z,17.93
2018-02-14T06:02:20.725Z,19.30
2018-02-14T06:04:48.247Z,18.53
2018-02-14T06:07:16.459Z,16.50
2018-02-14T06:09:43.909Z,18.07
2018-02-14T06:12:11.364Z,19.97
2018-02-14T06:14:38.821Z,18.50
2018-02-14T06:17:06.281Z,16.23
2018-02-14T06:19:33.751Z,22.67
2018-02-14T06:22:01.206Z,17.60
2018-02-14T06:24:28.656Z,20.90
2018-02-14T06:26:56.112Z,23.77
2018-02-14T06:29:23.564Z,18.93
2018-02-14T06:31:51.019Z,20.73
2018-02-14T06:34:18.498Z,23.20
2018-02-14T06:36:45.913Z,21.77
2018-02-14T06:39:13.368Z,16.40
2018-02-14T06:41:40.822Z,18.90
2018-02-14T06:44:09.032Z,19.97
2018-02-14T06:46:36.490Z,23.10
2018-02-14T06:49:03.947Z,20.17
2018-02-14T06:51:31.396Z,21.33
2018-02-14T06:53:58.850Z,17.60
2018-02-14T06:56:26.308Z,17.77
2018-02-14T06:58:53.772Z,16.30
2018-02-14T07:01:21.236Z,18.13
2018-02-14T07:03:48.672Z,21.00
2018-02-14T07:06:16.140Z,16.17
2018-02-14T07:08:43.596Z,18.17
2018-02-14T07:11:11.057Z,16.17
2018-02-14T07:13:38.499Z,17.60
2018-02-14T07:16:05.951Z,22.93
2018-02-14T07:18:33.415Z,16.93
2018-02-14T07:21:00.861Z,17.80
2018-02-14T07:23:30.879Z,18.80
2018-02-14T07:25:59.082Z,16.63
2018-02-14T07:28:26.540Z,19.63
2018-02-14T07:30:54.001Z,19.23
2018-02-14T07:33:21.456Z,19.50
2018-02-14T07:35:48.918Z,18.43
2018-02-14T07:38:16.373Z,17.93
2018-02-14T07:40:43.869Z,18.80
2018-02-14T07:43:11.285Z,16.23
2018-02-14T07:45:38.733Z,22.23
2018-02-14T07:48:06.188Z,20.50
2018-02-14T07:50:33.637Z,19.33
2018-02-14T07:53:01.094Z,18.63
2018-02-14T07:55:28.541Z,17.20
2018-02-14T07:57:56.032Z,15.47
2018-02-14T08:00:23.476Z,15.87
2018-02-14T08:02:50.940Z,18.83
2018-02-14T08:05:18.406Z,17.43
2018-02-14T08:07:45.882Z,17.40
2018-02-14T08:10:13.325Z,22.23
2018-02-14T08:12:40.784Z,15.30
2018-02-14T08:15:08.237Z,22.83
2018-02-14T08:17:35.688Z,17.77
2018-02-14T08:20:03.148Z,16.20
2018-02-14T08:22:30.827Z,18.40
2018-02-14T08:24:58.274Z,16.07
2018-02-14T08:27:26.501Z,20.23
2018-02-14T08:29:53.954Z,14.73
2018-02-14T08:32:21.403Z,14.93
2018-02-14T08:34:49.630Z,20.57
2018-02-14T08:37:17.072Z,16.60
2018-02-14T08:39:44.532Z,18.50
2018-02-14T08:42:11.990Z,17.43
2018-02-14T08:44:39.446Z,17.53
2018-02-14T08:47:07.685Z,17.23
2018-02-14T08:49:35.158Z,15.60
2018-02-14T08:52:03.373Z,12.57
2018-02-14T08:54:30.832Z,16.80
2018-02-14T08:56:58.301Z,19.87
2018-02-14T08:59:25.761Z,22.50
2018-02-14T09:01:53.204Z,14.93
2018-02-14T09:04:20.661Z,17.20
2018-02-14T09:06:48.110Z,20.67
2018-02-14T09:09:15.900Z,17.70
2018-02-14T09:11:43.345Z,17.17
2018-02-14T09:14:10.802Z,15.47
2018-02-14T09:16:38.256Z,16.50
2018-02-14T09:19:05.712Z,18.97
2018-02-14T09:21:33.177Z,19.73
2018-02-14T09:24:00.631Z,18.13
2018-02-14T09:26:28.088Z,19.23
2018-02-14T09:28:55.537Z,16.13
2018-02-14T09:31:23.773Z,18.43
2018-02-14T09:33:51.988Z,16.20
2018-02-14T09:36:19.450Z,17.00
2018-02-14T09:38:46.901Z,14.60
2018-02-14T09:41:14.372Z,16.90
2018-02-14T09:43:41.825Z,14.20
2018-02-14T09:46:09.276Z,17.10
2018-02-14T09:48:36.732Z,19.40
2018-02-14T09:51:04.188Z,13.50
2018-02-14T09:53:31.650Z,14.53
2018-02-14T09:55:59.111Z,14.60
2018-02-14T09:58:27.328Z,12.97
2018-02-14T10:00:54.792Z,17.53
2018-02-14T10:03:22.253Z,21.13
2018-02-14T10:05:49.717Z,13.77
2018-02-14T10:08:17.165Z,14.73
2018-02-14T10:10:44.620Z,13.37
2018-02-14T10:13:12.845Z,14.53
2018-02-14T10:15:40.300Z,15.07
2018-02-14T10:18:07.756Z,12.73
2018-02-14T10:20:35.222Z,11.50
2018-02-14T10:23:03.458Z,14.83
2018-02-14T10:25:31.685Z,14.80
2018-02-14T10:27:59.145Z,15.50
2018-02-14T10:30:26.600Z,12.17
2018-02-14T10:32:54.062Z,12.57
2018-02-14T10:35:21.508Z,12.93
2018-02-14T10:37:48.965Z,13.63
2018-02-14T10:40:16.417Z,13.73
2018-02-14T10:42:44.642Z,14.33
2018-02-14T10:45:12.864Z,16.60
2018-02-14T10:47:40.356Z,14.10
2018-02-14T10:50:07.939Z,12.83
2018-02-14T10:52:35.538Z,15.00
2018-02-14T10:55:02.982Z,13.20
2018-02-14T10:57:31.238Z,10.33
2018-02-14T11:00:00.289Z,13.10
2018-02-14T11:02:27.756Z,13.03
2018-02-14T11:07:57.916Z,12.80
2018-02-14T11:10:26.139Z,14.20
2018-02-14T11:12:53.597Z,18.90
2018-02-14T11:15:21.057Z,10.43
2018-02-14T11:17:48.512Z,11.23
2018-02-14T11:20:15.960Z,11.73
2018-02-14T11:22:43.425Z,11.30
2018-02-14T11:25:10.869Z,9.60
2018-02-14T11:27:38.326Z,11.30
2018-02-14T11:30:05.766Z,13.40
2018-02-14T11:32:33.984Z,8.30
2018-02-14T11:35:01.429Z,7.30
2018-02-14T11:37:28.881Z,8.13
2018-02-14T11:39:56.335Z,9.10
2018-02-14T11:42:23.784Z,8.27
2018-02-14T11:44:51.228Z,9.77
2018-02-14T11:47:18.734Z,7.20
2018-02-14T11:49:46.153Z,6.83
2018-02-14T11:52:14.383Z,7.97
2018-02-14T11:54:41.835Z,7.63
2018-02-14T11:57:09.272Z,7.70
2018-02-14T11:59:36.731Z,6.00
2018-02-14T12:02:04.185Z,6.70
2018-02-14T12:04:31.641Z,6.70
2018-02-14T12:06:59.089Z,5.97
2018-02-14T12:09:26.553Z,12.20
2018-02-14T12:11:54.001Z,6.50
2018-02-14T12:14:21.453Z,9.17
2018-02-14T12:16:48.905Z,8.87
2018-02-14T12:19:16.352Z,6.07
2018-02-14T12:21:43.814Z,6.47
2018-02-14T12:24:11.260Z,6.17
2018-02-14T12:26:39.473Z,6.47
2018-02-14T12:29:06.925Z,6.20
2018-02-14T12:31:34.376Z,7.00
2018-02-14T12:34:01.825Z,6.23
2018-02-14T12:36:29.268Z,5.63
2018-02-14T12:38:57.500Z,5.97
2018-02-14T12:41:24.934Z,6.20
2018-02-14T12:43:52.392Z,5.50
2018-02-14T12:46:19.840Z,5.40
2018-02-14T12:48:47.296Z,5.20
2018-02-14T12:51:14.753Z,5.03
2018-02-14T12:53:42.208Z,5.37
2018-02-14T12:56:09.652Z,7.30
2018-02-14T12:58:37.118Z,5.43
2018-02-14T13:01:04.562Z,5.47
2018-02-14T13:03:32.787Z,5.37
2018-02-14T13:06:00.235Z,6.00
2018-02-14T13:08:27.684Z,5.70
2018-02-14T13:10:55.138Z,5.17
2018-02-14T13:13:22.589Z,8.63
2018-02-14T13:15:50.044Z,5.90
2018-02-14T13:18:17.488Z,5.43
2018-02-14T13:20:44.955Z,5.10
2018-02-14T13:23:12.396Z,4.77
2018-02-14T13:25:39.844Z,4.30
2018-02-14T13:28:08.060Z,5.17
2018-02-14T13:30:35.518Z,4.73
2018-02-14T13:33:02.956Z,6.10
2018-02-14T13:35:30.409Z,4.90
2018-02-14T13:37:57.856Z,4.60
2018-02-14T13:40:26.064Z,5.47
2018-02-14T13:42:53.517Z,5.20
2018-02-14T13:45:20.967Z,4.80
2018-02-14T13:47:48.404Z,5.00
2018-02-14T13:50:15.861Z,4.97
2018-02-14T13:52:43.305Z,5.37
2018-02-14T13:55:11.529Z,5.10
2018-02-14T13:57:38.977Z,4.73
2018-02-14T14:00:06.462Z,6.20
2018-02-14T14:02:33.901Z,4.57
2018-02-14T14:05:01.366Z,4.70
2018-02-14T14:07:28.804Z,4.73
2018-02-14T14:09:56.240Z,4.40
2018-02-14T14:12:23.697Z,4.60
2018-02-14T14:14:51.142Z,4.60
2018-02-14T14:17:19.376Z,4.53
2018-02-14T14:19:46.816Z,6.10
2018-02-14T14:22:14.294Z,5.70
2018-02-14T14:24:41.740Z,6.57
2018-02-14T14:27:09.197Z,8.10
2018-02-14T14:29:36.640Z,6.67
2018-02-14T14:32:04.871Z,9.30
2018-02-14T14:34:33.091Z,7.40
2018-02-14T14:37:00.540Z,7.80
2018-02-14T14:39:27.989Z,12.07
2018-02-14T14:41:55.445Z,10.57
2018-02-14T14:44:22.904Z,9.10
2018-02-14T14:46:50.349Z,7.83
2018-02-14T14:49:17.811Z,9.40
2018-02-14T14:51:45.269Z,8.67
2018-02-14T14:54:12.709Z,8.93
2018-02-14T14:56:40.944Z,14.10
2018-02-14T14:59:08.394Z,9.20
2018-02-14T15:01:35.856Z,10.20
2018-02-14T15:04:03.313Z,9.50
2018-02-14T15:06:30.778Z,9.90
2018-02-14T15:08:58.233Z,11.13
2018-02-14T15:11:25.709Z,8.10
2018-02-14T15:13:53.169Z,9.20
2018-02-14T15:16:20.625Z,11.03
2018-02-14T15:18:48.080Z,8.20
2018-02-14T15:21:15.544Z,8.37
2018-02-14T15:23:42.991Z,9.40
2018-02-14T15:26:10.457Z,7.80
2018-02-14T15:28:37.916Z,12.70
2018-02-14T15:31:05.372Z,12.47
2018-02-14T15:33:32.825Z,8.87
2018-02-14T15:36:00.284Z,9.93
2018-02-14T15:38:27.745Z,11.50
2018-02-14T15:40:55.200Z,11.50
2018-02-14T15:43:22.665Z,10.00
2018-02-14T15:45:50.874Z,14.50
2018-02-14T15:48:19.108Z,10.70
2018-02-14T15:50:46.565Z,11.37
2018-02-14T15:53:14.045Z,10.67
2018-02-14T15:55:42.260Z,12.93
2018-02-14T15:58:09.731Z,11.10
2018-02-14T16:00:37.192Z,11.73
2018-02-14T16:03:04.667Z,13.13
2018-02-14T16:05:32.119Z,13.80
2018-02-14T16:07:59.575Z,11.87
2018-02-14T16:10:27.048Z,14.90
2018-02-14T16:12:54.525Z,11.77
2018-02-14T16:15:21.969Z,13.27
2018-02-14T16:17:50.201Z,11.87
2018-02-14T16:20:17.668Z,11.97
2018-02-14T16:22:45.888Z,11.80
2018-02-14T16:25:14.246Z,15.30
2018-02-14T16:27:41.693Z,18.53
2018-02-14T16:30:09.161Z,12.67
2018-02-14T16:32:36.620Z,14.37
2018-02-14T16:35:04.084Z,12.10
2018-02-14T16:37:31.554Z,13.40
2018-02-14T16:39:59.776Z,16.07
2018-02-14T16:42:27.232Z,13.63
2018-02-14T16:44:54.689Z,12.27
2018-02-14T16:47:22.149Z,15.27
2018-02-14T16:49:49.609Z,14.80
2018-02-14T16:52:17.083Z,15.63
2018-02-14T16:54:44.544Z,15.30
2018-02-14T16:57:12.005Z,14.77
2018-02-14T16:59:39.477Z,17.77
2018-02-14T17:02:06.930Z,14.17
2018-02-14T17:04:35.204Z,16.10
2018-02-14T17:07:03.430Z,15.13
2018-02-14T17:09:30.904Z,14.80
2018-02-14T17:11:58.365Z,16.70
2018-02-14T17:14:25.823Z,17.57
2018-02-14T17:16:53.276Z,15.50
2018-02-14T17:19:20.736Z,19.23
2018-02-14T17:21:48.246Z,17.73
2018-02-14T17:24:15.684Z,18.00
2018-02-14T17:26:43.149Z,22.97
2018-02-14T17:29:11.361Z,20.10
2018-02-14T17:31:38.832Z,17.40
2018-02-14T17:34:06.294Z,16.17
2018-02-14T17:36:33.763Z,24.00
2018-02-14T17:39:01.212Z,16.87
2018-02-14T17:41:28.664Z,16.20
2018-02-14T17:43:56.124Z,18.23
2018-02-14T17:46:23.584Z,15.90
2018-02-14T17:48:51.040Z,17.03
2018-02-14T17:51:18.493Z,16.90
2018-02-14T17:53:45.957Z,23.70
2018-02-14T17:56:13.421Z,16.90
2018-02-14T17:58:40.873Z,16.83
2018-02-14T18:01:08.325Z,18.10
2018-02-14T18:03:35.790Z,15.40
2018-02-14T18:06:03.250Z,16.20
2018-02-14T18:08:30.696Z,18.33
2018-02-14T18:10:58.913Z,19.17
2018-02-14T18:13:27.135Z,19.17
2018-02-14T18:15:54.617Z,17.37
2018-02-14T18:18:22.089Z,17.70
2018-02-14T18:20:49.537Z,19.23
2018-02-14T18:23:16.995Z,16.87
2018-02-14T18:25:44.445Z,16.63
2018-02-14T18:28:11.908Z,22.53
2018-02-14T18:30:39.368Z,25.00
2018-02-14T18:33:06.828Z,17.03
2018-02-14T18:35:34.273Z,17.20
2018-02-14T18:38:01.729Z,18.17
2018-02-14T18:40:29.936Z,19.10
2018-02-14T18:42:57.396Z,16.60
2018-02-14T18:45:24.848Z,18.20
2018-02-14T18:47:52.304Z,19.00
2018-02-14T18:50:19.757Z,18.00
2018-02-14T18:52:47.224Z,19.10
2018-02-14T18:55:15.440Z,20.47
2018-02-14T18:57:42.907Z,19.77
2018-02-14T19:00:10.348Z,17.37
2018-02-14T19:02:38.581Z,17.20
2018-02-14T19:05:06.037Z,19.87
2018-02-14T19:07:34.251Z,21.53
2018-02-14T19:10:01.706Z,17.90
2018-02-14T19:12:29.165Z,18.93
2018-02-14T19:14:56.622Z,19.23
2018-02-14T19:17:24.048Z,18.63
2018-02-14T19:19:52.324Z,20.10
2018-02-14T19:22:19.731Z,19.90
2018-02-14T19:24:47.185Z,20.87
2018-02-14T19:27:14.666Z,20.53
2018-02-14T19:29:42.139Z,19.23
2018-02-14T19:32:09.589Z,19.53
2018-02-14T19:34:37.048Z,20.07
2018-02-14T19:37:05.256Z,18.40
2018-02-14T19:39:32.719Z,18.63
2018-02-14T19:42:00.166Z,18.73
2018-02-14T19:44:28.389Z,20.30
2018-02-14T19:46:56.612Z,20.80
2018-02-14T19:49:24.836Z,24.33
2018-02-14T19:51:52.300Z,20.57
2018-02-14T19:54:19.752Z,22.00
2018-02-14T19:56:47.199Z,18.63
2018-02-14T19:59:14.665Z,21.93
2018-02-14T20:01:42.876Z,19.33
2018-02-14T20:04:10.341Z,23.70
2018-02-14T20:06:37.805Z,20.23
2018-02-14T20:09:05.260Z,19.67
2018-02-14T20:11:33.487Z,23.97
2018-02-14T20:14:00.942Z,19.93
2018-02-14T20:16:28.410Z,20.83
2018-02-14T20:18:56.621Z,21.57
2018-02-14T20:21:24.082Z,20.90
2018-02-14T20:23:51.537Z,18.77
2018-02-14T20:26:18.997Z,22.60
2018-02-14T20:28:46.440Z,18.93
2018-02-14T20:31:13.901Z,17.47
2018-02-14T20:33:41.353Z,27.60
2018-02-14T20:36:08.902Z,18.73
2018-02-14T20:38:36.357Z,24.33
2018-02-14T20:41:03.815Z,19.03
2018-02-14T20:43:31.274Z,19.53
2018-02-14T20:45:58.728Z,18.20
2018-02-14T20:48:26.185Z,19.67
2018-02-14T20:53:27.556Z,19.13
2018-02-14T20:55:55.016Z,25.13
2018-02-14T20:58:22.491Z,19.40
2018-02-14T21:00:49.949Z,19.37
2018-02-14T21:03:17.399Z,20.40
2018-02-14T21:05:44.870Z,27.53
2018-02-14T21:08:12.317Z,27.13
2018-02-14T21:10:39.765Z,21.77
2018-02-14T21:13:07.249Z,18.80
2018-02-14T21:15:35.485Z,19.17
2018-02-14T21:18:02.937Z,21.00
2018-02-14T21:20:30.376Z,21.63
2018-02-14T21:22:58.095Z,22.50
2018-02-14T21:25:25.633Z,19.47
2018-02-14T21:27:53.089Z,21.33
2018-02-14T21:30:20.532Z,21.00
2018-02-14T21:32:48.004Z,20.50
2018-02-14T21:35:15.456Z,22.63
2018-02-14T21:37:42.908Z,20.42
2018-02-14T21:40:10.369Z,18.50
2018-02-14T21:42:37.846Z,22.20
2018-02-14T21:45:05.305Z,21.33
2018-02-14T21:47:32.756Z,21.20
2018-02-14T21:50:00.200Z,20.80
2018-02-14T21:52:27.676Z,24.83
2018-02-14T21:54:55.135Z,22.27
2018-02-14T21:57:22.588Z,26.23
2018-02-14T21:59:50.037Z,27.73
2018-02-14T22:02:17.496Z,21.90
2018-02-14T22:04:44.965Z,22.13
2018-02-14T22:07:12.420Z,23.80
2018-02-14T22:09:40.625Z,24.00
2018-02-14T22:12:08.121Z,23.80
2018-02-14T22:14:35.565Z,20.90
2018-02-14T22:17:03.048Z,25.00
2018-02-14T22:19:30.486Z,24.47
2018-02-14T22:21:57.947Z,23.90
2018-02-14T22:24:25.519Z,26.63
2018-02-14T22:26:52.961Z,24.70
2018-02-14T22:29:20.466Z,24.07
2018-02-14T22:31:47.914Z,27.03
2018-02-14T22:34:16.873Z,23.20
2018-02-14T22:36:44.321Z,24.30
2018-02-14T22:39:11.797Z,24.70
2018-02-14T22:41:39.257Z,24.97
2018-02-14T22:44:06.728Z,21.07
2018-02-14T22:46:34.181Z,23.97
2018-02-14T22:49:01.643Z,27.77
2018-02-14T22:51:29.101Z,22.70
2018-02-14T22:53:56.574Z,22.20
2018-02-14T22:56:24.020Z,24.90
2018-02-14T22:58:51.472Z,24.27
2018-02-14T23:01:18.929Z,23.40
2018-02-14T23:03:46.404Z,22.40
2018-02-14T23:06:13.844Z,26.93
2018-02-14T23:08:41.313Z,25.30
2018-02-14T23:11:08.761Z,26.60
2018-02-14T23:13:36.221Z,20.80
2018-02-14T23:16:03.696Z,28.60
2018-02-14T23:18:31.936Z,25.27
2018-02-14T23:20:59.393Z,24.87
2018-02-14T23:23:26.880Z,26.93
2018-02-14T23:25:54.326Z,23.57
2018-02-14T23:28:21.793Z,23.60
2018-02-14T23:30:49.245Z,22.33
2018-02-14T23:33:16.709Z,24.27
2018-02-14T23:35:44.155Z,24.37
2018-02-14T23:38:11.601Z,23.70
2018-02-14T23:40:39.156Z,23.83
2018-02-14T23:43:06.588Z,23.20
2018-02-14T23:45:34.049Z,22.60
2018-02-14T23:48:01.512Z,24.30
2018-02-14T23:50:28.972Z,24.03
2018-02-14T23:52:56.449Z,21.30
2018-02-14T23:55:23.912Z,22.10
2018-02-14T23:57:52.138Z,24.53
